Time;durP1;ratioP1;P1;durP2;ratioP2;P2;SDS_P1;SDS_P2;PMS_P1;PMS_P2;Temp;Humidity;BMP_temperature;BMP_pressure;BME280_temperature;BME280_humidity;BME280_pressure;Samples;Min_cycle;Max_cycle;Signal;HPM_P1;HPM_P2
2023/03/14 00:02:02;;;;;;;;;;;;;;;11.18;52.83;98512.50;5094694;28;19924;-64
2023/03/14 00:04:31;;;;;;;;;;;;;;;11.20;52.68;98505.63;5094851;28;20023;-63
2023/03/14 00:06:59;;;;;;;;;;;;;;;11.21;52.78;98507.28;5094641;28;19920;-64
2023/03/14 00:09:29;;;;;;;;;;;;;;;11.22;52.64;98504.72;5094549;28;20014;-63
2023/03/14 00:11:58;;;;;;;;;;;;;;;11.20;52.65;98495.44;5094855;28;19923;-64
2023/03/14 00:14:26;;;;;;;;;;;;;;;11.21;52.59;98504.75;5094359;28;19963;-63
2023/03/14 00:16:55;;;;;;;;;;;;;;;11.23;52.39;98490.22;5094294;28;19938;-63
2023/03/14 00:19:24;;;;;;;;;;;;;;;11.26;52.64;98478.25;5094433;28;20366;-64
2023/03/14 00:21:53;;;;;;;;;;;;;;;11.28;52.61;98475.63;5094754;28;20388;-63
2023/03/14 00:24:21;;;;;;;;;;;;;;;11.27;52.36;98468.88;5094539;28;19978;-64
2023/03/14 00:26:50;;;;;;;;;;;;;;;11.24;52.67;98480.00;5094155;28;20007;-64
2023/03/14 00:29:18;;;;;;;;;;;;;;;11.23;52.63;98480.00;5094563;28;19920;-64
2023/03/14 00:31:47;;;;;;;;;;;;;;;11.19;52.60;98488.63;5094218;28;20374;-64
2023/03/14 00:34:15;;;;;;;;;;;;;;;11.15;52.84;98476.81;5094172;28;19920;-64
2023/03/14 00:36:45;;;;;;;;;;;;;;;11.13;52.78;98458.94;5094126;28;19920;-64
2023/03/14 00:39:14;;;;;;;;;;;;;;;11.10;52.36;98445.44;5094075;28;20065;-64
2023/03/14 00:41:42;;;;;;;;;;;;;;;11.10;52.38;98438.63;5093526;28;19920;-63
2023/03/14 00:44:11;;;;;;;;;;;;;;;11.05;52.43;98425.13;5094585;28;19927;-63
2023/03/14 00:46:40;;;;;;;;;;;;;;;11.03;52.57;98426.88;5094096;28;20014;-64
2023/03/14 00:49:09;;;;;;;;;;;;;;;11.02;52.57;98424.31;5093940;28;19929;-64
2023/03/14 00:51:37;;;;;;;;;;;;;;;10.98;52.34;98422.72;5093976;28;19920;-64
2023/03/14 00:54:07;;;;;;;;;;;;;;;10.89;52.73;98410.19;5094347;28;19920;-64
2023/03/14 00:56:36;;;;;;;;;;;;;;;10.84;53.09;98400.06;5094280;28;19920;-64
2023/03/14 00:59:04;;;;;;;;;;;;;;;10.81;52.76;98389.09;5093906;28;19920;-64
2023/03/14 01:01:33;;;;;;;;;;;;;;;10.80;53.25;98382.31;5094667;28;19919;-64
2023/03/14 01:04:02;;;;;;;;;;;;;;;10.80;52.90;98382.31;5098085;28;19931;-64
2023/03/14 01:06:31;;;;;;;;;;;;;;;10.78;52.72;98370.41;5098099;28;19927;-63
2023/03/14 01:09:00;;;;;;;;;;;;;;;10.77;53.29;98363.63;5098055;28;20010;-63
2023/03/14 01:11:31;;;;;;;;;;;;;;;10.77;53.32;98357.72;5097037;28;19927;-66
2023/03/14 01:13:59;;;;;;;;;;;;;;;10.80;52.77;98347.41;5097218;28;20011;-64
2023/03/14 01:16:30;;;;;;;;;;;;;;;10.85;53.01;98329.44;5097736;28;19973;-63
2023/03/14 01:19:01;;;;;;;;;;;;;;;10.87;52.60;98322.59;5097977;28;19920;-63
2023/03/14 01:21:31;;;;;;;;;;;;;;;10.86;52.84;98326.00;5097603;28;19920;-63
2023/03/14 01:24:01;;;;;;;;;;;;;;;10.88;52.52;98326.81;5096640;28;19924;-63
2023/03/14 01:26:32;;;;;;;;;;;;;;;10.86;52.37;98315.81;5096831;28;19919;-63
2023/03/14 01:29:01;;;;;;;;;;;;;;;10.84;52.67;98307.34;5096531;28;19920;-63
2023/03/14 01:31:31;;;;;;;;;;;;;;;10.85;52.61;98298.81;5096440;28;20361;-64
2023/03/14 01:33:59;;;;;;;;;;;;;;;10.87;52.49;98291.97;5097458;28;19973;-63
2023/03/14 01:36:28;;;;;;;;;;;;;;;10.81;52.51;98289.56;5096339;28;19920;-64
2023/03/14 01:39:01;;;;;;;;;;;;;;;10.80;52.59;98282.78;5097510;28;19969;-64
2023/03/14 01:41:31;;;;;;;;;;;;;;;10.81;52.77;98304.88;5096286;28;20453;-63
2023/03/14 01:44:01;;;;;;;;;;;;;;;10.82;52.70;98309.09;5097725;28;19927;-64
2023/03/14 01:46:37;;;;;;;;;;;;;;;10.80;52.94;98310.88;5096079;28;19920;-63
2023/03/14 01:49:10;;;;;;;;;;;;;;;10.83;52.85;98310.78;5097352;28;20015;-64
2023/03/14 01:51:43;;;;;;;;;;;;;;;10.79;52.41;98304.91;5096113;28;19920;-63
2023/03/14 01:54:16;;;;;;;;;;;;;;;10.76;52.74;98310.94;5096273;28;20362;-64
2023/03/14 01:56:48;;;;;;;;;;;;;;;10.75;52.86;98303.28;5096363;28;19969;-63
2023/03/14 01:59:16;;;;;;;;;;;;;;;10.69;52.86;98308.56;5097436;28;19920;-64
2023/03/14 02:01:47;;;;;;;;;;;;;;;10.67;53.08;98295.84;5095859;28;19920;-63
2023/03/14 02:04:17;;;;;;;;;;;;;;;10.67;52.98;98305.19;5095919;28;19990;-63
2023/03/14 02:06:50;;;;;;;;;;;;;;;10.66;52.71;98298.41;5095719;28;19973;-63
2023/03/14 02:09:21;;;;;;;;;;;;;;;10.64;52.93;98290.81;5096937;28;20439;-64
2023/03/14 02:11:51;;;;;;;;;;;;;;;10.63;52.79;98289.13;5095395;28;20431;-64
2023/03/14 02:14:32;;;;;;;;;;;;;;;10.62;52.85;98287.47;5097064;28;20366;-65
2023/03/14 02:17:22;;;;;;;;;;;;;;;10.63;52.93;98268.69;5092937;28;19920;-64
2023/03/14 02:20:17;;;;;;;;;;;;;;;10.60;53.11;98273.91;5096722;28;19973;-64
2023/03/14 02:22:53;;;;;;;;;;;;;;;10.58;53.13;98265.41;5096675;28;19926;-64
2023/03/14 02:25:26;;;;;;;;;;;;;;;10.61;53.06;98275.56;5096361;28;19966;-65
2023/03/14 02:27:56;;;;;;;;;;;;;;;10.59;53.18;98277.31;5095417;28;19954;-64
2023/03/14 02:30:26;;;;;;;;;;;;;;;10.57;53.39;98253.56;5095311;28;19959;-64
2023/03/14 02:32:56;;;;;;;;;;;;;;;10.56;53.13;98251.88;5095555;28;19931;-64
2023/03/14 02:35:28;;;;;;;;;;;;;;;10.64;53.20;98249.97;5095114;28;19938;-64
2023/03/14 02:38:00;;;;;;;;;;;;;;;10.62;52.77;98236.44;5095178;28;19926;-64
2023/03/14 02:40:34;;;;;;;;;;;;;;;10.59;52.74;98210.16;5097212;28;19942;-65
2023/03/14 02:43:03;;;;;;;;;;;;;;;10.54;53.05;98205.16;5096255;28;19924;-65
2023/03/14 02:45:38;;;;;;;;;;;;;;;10.47;52.86;98211.28;5095060;28;19920;-64
2023/03/14 02:48:10;;;;;;;;;;;;;;;10.41;53.03;98211.44;5095303;28;20388;-66
2023/03/14 02:50:40;;;;;;;;;;;;;;;10.34;53.13;98204.78;5095021;28;20373;-64
2023/03/14 02:53:09;;;;;;;;;;;;;;;10.33;53.36;98187.81;5095203;28;19920;-64
2023/03/14 02:55:37;;;;;;;;;;;;;;;10.30;53.46;98198.09;5095172;28;19943;-64
2023/03/14 02:58:13;;;;;;;;;;;;;;;10.28;53.80;98194.75;5096275;28;20316;-64
2023/03/14 03:00:46;;;;;;;;;;;;;;;10.26;54.28;98196.50;5095988;28;19923;-64
2023/03/14 03:03:15;;;;;;;;;;;;;;;10.26;53.69;98196.50;5094993;28;19924;-64
2023/03/14 03:05:44;;;;;;;;;;;;;;;10.25;53.84;98205.00;5094859;28;19924;-64
2023/03/14 03:08:13;;;;;;;;;;;;;;;10.20;54.33;98186.44;5094801;28;19920;-64
2023/03/14 03:10:41;;;;;;;;;;;;;;;10.21;53.89;98172.81;5094827;28;20273;-65
2023/03/14 03:13:13;;;;;;;;;;;;;;;10.21;54.48;98170.25;5094513;28;19955;-64
2023/03/14 03:15:42;;;;;;;;;;;;;;;10.23;54.42;98175.31;5095405;28;19926;-64
2023/03/14 03:18:13;;;;;;;;;;;;;;;10.24;54.43;98157.47;5095884;28;19920;-64
2023/03/14 03:20:43;;;;;;;;;;;;;;;10.28;54.76;98148.84;5095613;28;20016;-64
2023/03/14 03:23:12;;;;;;;;;;;;;;;10.26;54.79;98140.41;5094155;28;19965;-64
2023/03/14 03:25:41;;;;;;;;;;;;;;;10.30;55.02;98144.53;5095256;28;19920;-65
2023/03/14 03:28:09;;;;;;;;;;;;;;;10.30;54.63;98164.94;5095381;28;19959;-65
2023/03/14 03:30:41;;;;;;;;;;;;;;;10.32;55.31;98187.88;5095329;28;19926;-65
2023/03/14 03:33:10;;;;;;;;;;;;;;;10.34;54.99;98173.38;5095714;28;19927;-64
2023/03/14 03:35:43;;;;;;;;;;;;;;;10.36;55.42;98162.25;5095911;28;19920;-64
2023/03/14 03:38:11;;;;;;;;;;;;;;;10.41;55.39;98182.53;5095293;28;19927;-64
2023/03/14 03:40:41;;;;;;;;;;;;;;;10.54;55.53;98172.00;5094228;28;19927;-63
2023/03/14 03:43:10;;;;;;;;;;;;;;;10.61;55.46;98163.31;5095154;28;20011;-63
2023/03/14 03:45:43;;;;;;;;;;;;;;;10.63;55.20;98166.66;5094997;28;19931;-63
2023/03/14 03:48:12;;;;;;;;;;;;;;;10.63;55.82;98145.41;5093897;28;19920;-63
2023/03/14 03:50:45;;;;;;;;;;;;;;;10.61;55.65;98147.16;5094899;28;19947;-64
2023/03/14 03:53:15;;;;;;;;;;;;;;;10.60;54.96;98138.69;5093734;28;19989;-64
2023/03/14 03:56:01;;;;;;;;;;;;;;;10.53;54.96;98134.59;5094861;28;19934;-63
2023/03/14 03:58:30;;;;;;;;;;;;;;;10.51;54.67;98136.34;5093959;28;19919;-64
2023/03/14 04:01:00;;;;;;;;;;;;;;;10.49;54.72;98138.13;5093480;28;20007;-63
2023/03/14 04:03:28;;;;;;;;;;;;;;;10.50;54.84;98142.34;5093555;28;19923;-64
2023/03/14 04:06:00;;;;;;;;;;;;;;;10.49;55.10;98133.00;5093737;28;19978;-63
2023/03/14 04:08:29;;;;;;;;;;;;;;;10.49;55.08;98133.00;5094671;28;19927;-64
2023/03/14 04:10:59;;;;;;;;;;;;;;;10.55;55.25;98137.97;5093277;28;20018;-65
2023/03/14 04:13:37;;;;;;;;;;;;;;;10.61;54.85;98137.81;5094934;28;19973;-64
2023/03/14 04:16:15;;;;;;;;;;;;;;;10.61;55.61;98140.34;5093302;28;19920;-64
2023/03/14 04:18:44;;;;;;;;;;;;;;;10.66;55.77;98145.34;5094501;28;19920;-64
2023/03/14 04:21:13;;;;;;;;;;;;;;;10.65;55.50;98144.50;5093079;28;19920;-64
2023/03/14 04:23:48;;;;;;;;;;;;;;;10.65;55.54;98144.50;5093190;28;19926;-65
2023/03/14 04:26:18;;;;;;;;;;;;;;;10.72;55.73;98143.44;5094254;28;20006;-64
2023/03/14 04:28:47;;;;;;;;;;;;;;;10.80;55.55;98132.25;5093079;28;19927;-64
2023/03/14 04:31:19;;;;;;;;;;;;;;;10.77;55.41;98126.31;5092981;28;19955;-64
2023/03/14 04:33:48;;;;;;;;;;;;;;;10.69;55.88;98135.91;5094517;28;19943;-64
2023/03/14 04:36:22;;;;;;;;;;;;;;;10.64;55.69;98131.78;5094875;28;19973;-64
2023/03/14 04:38:51;;;;;;;;;;;;;;;10.66;55.35;98140.22;5092989;28;19948;-64
2023/03/14 04:41:21;;;;;;;;;;;;;;;10.66;55.57;98135.97;5094397;28;20445;-64
2023/03/14 04:43:50;;;;;;;;;;;;;;;10.66;55.28;98141.06;5092894;28;20006;-64
2023/03/14 04:46:20;;;;;;;;;;;;;;;10.66;55.70;98146.19;5092811;28;19924;-64
2023/03/14 04:48:49;;;;;;;;;;;;;;;10.61;56.07;98157.38;5093280;28;20349;-63
2023/03/14 04:51:19;;;;;;;;;;;;;;;10.59;55.48;98146.38;5094014;28;19955;-64
2023/03/14 04:53:48;;;;;;;;;;;;;;;10.63;55.32;98140.31;5092735;28;20389;-64
2023/03/14 04:56:16;;;;;;;;;;;;;;;10.62;55.72;98119.09;5092709;28;19920;-64
2023/03/14 04:58:45;;;;;;;;;;;;;;;10.47;55.91;98124.56;5093912;28;19924;-64
2023/03/14 05:01:17;;;;;;;;;;;;;;;10.35;55.88;98107.03;5093885;28;19926;-64
2023/03/14 05:03:50;;;;;;;;;;;;;;;10.33;56.17;98097.72;5093897;28;19920;-64
2023/03/14 05:06:29;;;;;;;;;;;;;;;10.42;55.85;98105.16;5093878;28;19931;-64
2023/03/14 05:09:01;;;;;;;;;;;;;;;10.53;56.34;98106.53;5093944;28;19919;-64
2023/03/14 05:11:41;;;;;;;;;;;;;;;10.64;56.36;98104.56;5094103;28;19927;-66
2023/03/14 05:14:19;;;;;;;;;;;;;;;10.65;56.10;98098.56;5093879;28;20003;-65
2023/03/14 05:17:08;;;;;;;;;;;;;;;10.67;55.74;98081.53;5072234;28;19920;-64
2023/03/14 05:19:49;;;;;;;;;;;;;;;10.72;55.74;98078.84;5094022;28;19945;-64
2023/03/14 05:22:30;;;;;;;;;;;;;;;10.83;55.83;98101.50;5093713;28;20010;-64
2023/03/14 05:25:10;;;;;;;;;;;;;;;10.87;55.87;98100.56;5093772;28;19993;-64
2023/03/14 05:27:50;;;;;;;;;;;;;;;10.88;55.92;98115.00;5093908;28;20263;-64
2023/03/14 05:30:39;;;;;;;;;;;;;;;10.88;55.83;98094.56;5093261;28;19945;-63
2023/03/14 05:33:17;;;;;;;;;;;;;;;10.91;56.07;98097.88;5093889;28;19926;-64
2023/03/14 05:35:58;;;;;;;;;;;;;;;10.91;55.72;98099.59;5093591;28;19920;-64
2023/03/14 05:38:47;;;;;;;;;;;;;;;10.90;55.96;98093.66;5082536;28;19920;-64
2023/03/14 05:41:26;;;;;;;;;;;;;;;10.89;56.06;98086.88;5093561;28;19969;-63
2023/03/14 05:44:06;;;;;;;;;;;;;;;10.91;55.71;98097.03;5093503;28;19923;-67
2023/03/14 05:46:46;;;;;;;;;;;;;;;10.92;56.12;98085.97;5094121;28;19951;-64
2023/03/14 05:49:26;;;;;;;;;;;;;;;10.93;56.00;98096.13;5097895;28;20328;-64
2023/03/14 05:52:16;;;;;;;;;;;;;;;10.95;56.44;98098.63;5097214;28;19927;-64
2023/03/14 05:54:56;;;;;;;;;;;;;;;10.93;55.97;98103.78;5097235;28;19924;-64
2023/03/14 05:57:47;;;;;;;;;;;;;;;10.91;56.06;98114.91;5097235;28;19920;-63
2023/03/14 06:00:36;;;;;;;;;;;;;;;10.92;56.36;98097.00;5097256;28;20082;-63
2023/03/14 06:03:24;;;;;;;;;;;;;;;10.93;56.36;98097.84;5097338;28;20031;-63
2023/03/14 06:05:53;;;;;;;;;;;;;;;10.96;57.07;98085.84;5096019;28;20429;-64
2023/03/14 06:08:25;;;;;;;;;;;;;;;10.99;56.81;98092.56;5097051;28;20053;-64
2023/03/14 06:10:54;;;;;;;;;;;;;;;10.99;57.31;98092.56;5095968;28;19923;-65
2023/03/14 06:13:28;;;;;;;;;;;;;;;11.03;57.38;98099.25;5097465;28;19920;-64
2023/03/14 06:15:57;;;;;;;;;;;;;;;11.10;57.68;98116.91;5095603;28;20352;-64
2023/03/14 06:18:25;;;;;;;;;;;;;;;11.11;57.84;98118.56;5096965;28;20010;-64
2023/03/14 06:20:56;;;;;;;;;;;;;;;11.11;58.19;98117.75;5096962;28;19920;-64
2023/03/14 06:23:30;;;;;;;;;;;;;;;11.03;58.11;98099.25;5096836;28;20490;-63
2023/03/14 06:26:00;;;;;;;;;;;;;;;11.13;58.21;98110.88;5097246;28;20269;-63
2023/03/14 06:28:29;;;;;;;;;;;;;;;11.11;57.89;98117.75;5095442;28;19920;-63
2023/03/14 06:31:01;;;;;;;;;;;;;;;11.12;58.43;98119.41;5096883;28;20034;-63
2023/03/14 06:33:36;;;;;;;;;;;;;;;11.13;58.12;98121.09;5095351;28;19920;-63
2023/03/14 06:36:07;;;;;;;;;;;;;;;11.05;57.77;98139.19;5096640;28;19927;-65
2023/03/14 06:38:38;;;;;;;;;;;;;;;10.98;58.04;98136.84;5096451;28;19920;-63
2023/03/14 06:41:08;;;;;;;;;;;;;;;10.89;57.66;98152.41;5095074;28;19951;-63
2023/03/14 06:43:42;;;;;;;;;;;;;;;10.89;58.16;98149.84;5096625;28;19962;-63
2023/03/14 06:46:12;;;;;;;;;;;;;;;10.84;58.72;98149.13;5096444;28;20468;-63
2023/03/14 06:48:43;;;;;;;;;;;;;;;10.77;58.29;98136.53;5095919;28;20007;-63
2023/03/14 06:51:13;;;;;;;;;;;;;;;10.89;58.71;98147.31;5096074;28;19920;-62
2023/03/14 06:53:43;;;;;;;;;;;;;;;10.88;58.84;98150.72;5095728;28;19953;-63
2023/03/14 06:56:14;;;;;;;;;;;;;;;10.88;58.70;98173.69;5094821;28;19920;-62
2023/03/14 06:58:43;;;;;;;;;;;;;;;10.78;58.57;98161.16;5094741;28;19927;-64
2023/03/14 07:01:19;;;;;;;;;;;;;;;10.73;58.72;98168.09;5095967;28;19943;-62
2023/03/14 07:03:47;;;;;;;;;;;;;;;10.84;59.66;98193.34;5094676;28;19919;-62
2023/03/14 07:06:16;;;;;;;;;;;;;;;10.92;60.05;98173.56;5094810;28;19919;-62
2023/03/14 07:08:46;;;;;;;;;;;;;;;10.94;59.62;98181.19;5094873;28;20258;-64
2023/03/14 07:11:16;;;;;;;;;;;;;;;10.92;59.65;98167.66;5095612;28;19920;-62
2023/03/14 07:13:45;;;;;;;;;;;;;;;10.94;60.11;98163.31;5096227;28;19927;-62
2023/03/14 07:16:13;;;;;;;;;;;;;;;11.02;60.22;98169.03;5095224;28;19927;-62
2023/03/14 07:18:42;;;;;;;;;;;;;;;11.03;60.69;98161.38;5095382;28;19924;-64
2023/03/14 07:21:11;;;;;;;;;;;;;;;11.06;60.68;98170.66;5095811;28;19927;-62
2023/03/14 07:23:41;;;;;;;;;;;;;;;11.04;60.17;98172.38;5095585;28;19920;-63
2023/03/14 07:26:11;;;;;;;;;;;;;;;11.04;61.04;98177.50;5094222;28;19951;-63
2023/03/14 07:28:47;;;;;;;;;;;;;;;11.16;60.56;98182.28;5095362;28;20373;-63
2023/03/14 07:31:19;;;;;;;;;;;;;;;11.26;60.29;98183.69;5095666;28;20320;-63
2023/03/14 07:33:47;;;;;;;;;;;;;;;11.40;60.12;98179.03;5094021;28;19926;-63
2023/03/14 07:36:16;;;;;;;;;;;;;;;11.62;59.87;98177.56;5077655;28;20247;-63
2023/03/14 07:38:46;;;;;;;;;;;;;;;11.77;59.91;98177.16;5094321;28;20023;-65
2023/03/14 07:41:34;;;;;;;;;;;;;;;11.73;59.05;98179.84;5101645;28;19959;-62
2023/03/14 07:44:14;;;;;;;;;;;;;;;11.69;59.38;98184.19;5095083;28;20004;-63
2023/03/14 07:46:43;;;;;;;;;;;;;;;11.68;59.36;98176.59;5093574;28;19920;-63
2023/03/14 07:49:11;;;;;;;;;;;;;;;11.69;59.07;98189.31;5098723;28;19967;-62
2023/03/14 07:51:40;;;;;;;;;;;;;;;11.70;59.14;98192.69;5094925;28;19920;-62
2023/03/14 07:54:08;;;;;;;;;;;;;;;11.79;59.32;98194.97;5094694;28;19943;-62
2023/03/14 07:56:38;;;;;;;;;;;;;;;11.93;59.30;98188.59;5099494;28;20298;-62
2023/03/14 07:59:08;;;;;;;;;;;;;;;12.05;59.11;98193.31;5100707;28;19927;-62
2023/03/14 08:01:36;;;;;;;;;;;;;;;12.13;58.93;98187.13;5100605;28;20338;-62
2023/03/14 08:04:05;;;;;;;;;;;;;;;12.23;58.64;98180.84;5099479;28;20405;-62
2023/03/14 08:06:33;;;;;;;;;;;;;;;12.29;58.83;98185.75;5111565;28;19927;-62
2023/03/14 08:09:03;;;;;;;;;;;;;;;12.30;58.71;98177.22;5108331;28;19955;-63
2023/03/14 08:11:32;;;;;;;;;;;;;;;12.32;58.60;98175.44;5100061;28;19924;-62
2023/03/14 08:14:02;;;;;;;;;;;;;;;12.32;58.67;98165.22;5094751;28;19919;-62
2023/03/14 08:16:30;;;;;;;;;;;;;;;12.41;58.37;98175.13;5113136;28;19919;-64
2023/03/14 08:18:59;;;;;;;;;;;;;;;12.53;58.27;98174.75;5096091;28;19965;-63
2023/03/14 08:21:27;;;;;;;;;;;;;;;12.67;58.09;98170.84;5094377;28;20027;-63
2023/03/14 08:23:56;;;;;;;;;;;;;;;12.74;57.73;98174.88;5095174;28;19920;-62
2023/03/14 08:26:25;;;;;;;;;;;;;;;12.82;57.92;98177.19;5093163;28;20320;-63
2023/03/14 08:28:53;;;;;;;;;;;;;;;12.95;58.10;98183.56;5094269;28;20018;-63
2023/03/14 08:31:23;;;;;;;;;;;;;;;12.96;57.83;98172.41;5094557;28;19955;-63
2023/03/14 08:33:52;;;;;;;;;;;;;;;12.98;57.47;98173.19;5103310;28;19965;-63
2023/03/14 08:36:21;;;;;;;;;;;;;;;13.03;57.67;98171.31;5097719;28;20438;-63
2023/03/14 08:38:51;;;;;;;;;;;;;;;13.07;57.76;98162.69;5094098;28;19964;-63
2023/03/14 08:41:20;;;;;;;;;;;;;;;13.13;57.50;98159.91;5098380;28;20292;-64
2023/03/14 08:43:48;;;;;;;;;;;;;;;13.23;57.34;98162.97;5103976;28;20069;-63
2023/03/14 08:46:17;;;;;;;;;;;;;;;13.25;57.85;98156.06;5110487;28;19920;-62
2023/03/14 08:48:46;;;;;;;;;;;;;;;13.33;57.67;98160.03;5093870;28;19920;-63
2023/03/14 08:51:15;;;;;;;;;;;;;;;13.41;57.83;98163.13;5094375;28;20010;-63
2023/03/14 08:53:44;;;;;;;;;;;;;;;13.51;57.90;98167.94;5093960;28;19920;-64
2023/03/14 08:56:12;;;;;;;;;;;;;;;13.60;57.54;98159.91;5094391;28;20361;-63
2023/03/14 08:58:41;;;;;;;;;;;;;;;13.73;57.53;98153.41;5093114;28;19924;-63
2023/03/14 09:01:10;;;;;;;;;;;;;;;13.82;57.95;98151.34;5093869;28;20381;-62
2023/03/14 09:03:39;;;;;;;;;;;;;;;13.95;57.85;98144.00;5094138;28;20354;-63
2023/03/14 09:06:11;;;;;;;;;;;;;;;14.01;57.56;98144.59;5105788;28;19923;-63
2023/03/14 09:08:39;;;;;;;;;;;;;;;14.03;58.03;98147.97;5114653;28;19946;-63
2023/03/14 09:11:08;;;;;;;;;;;;;;;14.06;57.40;98146.97;5114502;28;19920;-62
2023/03/14 09:13:37;;;;;;;;;;;;;;;14.05;57.81;98145.31;5114504;28;19919;-63
2023/03/14 09:16:06;;;;;;;;;;;;;;;14.05;57.73;98135.06;5114082;28;20007;-63
2023/03/14 09:18:34;;;;;;;;;;;;;;;14.09;57.78;98136.59;5114411;28;19920;-63
2023/03/14 09:21:03;;;;;;;;;;;;;;;14.11;58.00;98139.94;5114263;28;19920;-63
2023/03/14 09:23:33;;;;;;;;;;;;;;;14.17;58.11;98137.16;5117761;28;19927;-63
2023/03/14 09:26:02;;;;;;;;;;;;;;;14.28;58.25;98137.53;5116052;28;20018;-63
2023/03/14 09:28:31;;;;;;;;;;;;;;;14.35;57.97;98144.13;5097632;28;19989;-63
2023/03/14 09:31:06;;;;;;;;;;;;;;;14.34;58.12;98132.22;5097886;28;20302;-63
2023/03/14 09:33:34;;;;;;;;;;;;;;;14.35;58.21;98128.72;5098268;28;20367;-63
2023/03/14 09:36:03;;;;;;;;;;;;;;;14.44;57.96;98114.69;5103227;28;19926;-63
2023/03/14 09:38:32;;;;;;;;;;;;;;;14.47;58.43;98117.94;5106568;28;19942;-63
2023/03/14 09:41:03;;;;;;;;;;;;;;;14.55;57.92;98120.22;5097730;28;19920;-63
2023/03/14 09:43:34;;;;;;;;;;;;;;;14.63;57.47;98123.31;5097780;28;20289;-63
2023/03/14 09:46:04;;;;;;;;;;;;;;;14.58;57.51;98115.78;5097510;28;19920;-64
2023/03/14 09:48:34;;;;;;;;;;;;;;;14.62;58.17;98121.63;5096398;28;20373;-63
2023/03/14 09:51:06;;;;;;;;;;;;;;;14.67;58.14;98110.25;5097330;28;19920;-63
2023/03/14 09:53:38;;;;;;;;;;;;;;;14.69;58.51;98112.75;5096294;28;19966;-63
2023/03/14 09:56:12;;;;;;;;;;;;;;;14.67;58.28;98117.97;5097616;28;20015;-63
2023/03/14 09:58:42;;;;;;;;;;;;;;;14.63;58.74;98124.16;5104640;28;20334;-63
2023/03/14 10:01:12;;;;;;;;;;;;;;;14.62;58.89;98122.47;5111464;28;20381;-63
2023/03/14 10:03:42;;;;;;;;;;;;;;;14.55;58.83;98113.34;5117541;28;20354;-63
2023/03/14 10:06:12;;;;;;;;;;;;;;;14.48;58.94;98099.09;5117319;28;20419;-63
2023/03/14 10:08:41;;;;;;;;;;;;;;;14.40;58.73;98095.16;5110457;28;20425;-64
2023/03/14 10:11:15;;;;;;;;;;;;;;;14.52;58.82;98098.06;5094381;28;20086;-63
2023/03/14 10:14:04;;;;;;;;;;;;;;;14.59;58.81;98094.34;5096760;28;19920;-63
2023/03/14 10:16:33;;;;;;;;;;;;;;;14.72;59.45;98089.53;5108653;28;20300;-63
2023/03/14 10:19:04;;;;;;;;;;;;;;;14.76;58.89;98093.63;5097132;28;19920;-63
2023/03/14 10:21:37;;;;;;;;;;;;;;;14.71;59.11;98088.69;5096724;28;19927;-63
2023/03/14 10:24:19;;;;;;;;;;;;;;;14.67;59.20;98099.16;5097595;28;19920;-62
2023/03/14 10:26:53;;;;;;;;;;;;;;;14.57;59.14;98103.00;5096963;28;19920;-63
2023/03/14 10:29:22;;;;;;;;;;;;;;;14.61;59.35;98095.09;5096586;28;19926;-63
2023/03/14 10:31:55;;;;;;;;;;;;;;;14.51;59.54;98093.00;5096504;28;19930;-63
2023/03/14 10:34:25;;;;;;;;;;;;;;;14.55;59.36;98090.25;5096808;28;19955;-63
2023/03/14 10:36:54;;;;;;;;;;;;;;;14.57;58.95;98093.56;5109971;27;20404;-63
2023/03/14 10:39:26;;;;;;;;;;;;;;;14.53;59.21;98092.03;5106408;28;19919;-62
2023/03/14 10:42:03;;;;;;;;;;;;;;;14.47;59.49;98076.88;5113885;28;19969;-65
2023/03/14 10:44:32;;;;;;;;;;;;;;;14.55;58.90;98072.28;5097003;28;20281;-64
2023/03/14 10:47:02;;;;;;;;;;;;;;;14.68;58.97;98064.88;5096291;28;19924;-64
2023/03/14 10:49:32;;;;;;;;;;;;;;;14.77;58.94;98067.03;5096075;28;19923;-65
2023/03/14 10:52:14;;;;;;;;;;;;;;;14.90;59.31;98064.78;5096296;28;19923;-64
2023/03/14 10:54:47;;;;;;;;;;;;;;;14.96;59.37;98064.50;5096431;28;19943;-64
2023/03/14 10:57:20;;;;;;;;;;;;;;;14.95;59.07;98058.53;5095982;28;19920;-64
2023/03/14 10:59:48;;;;;;;;;;;;;;;14.88;58.81;98056.28;5096383;28;20350;-64
2023/03/14 11:02:35;;;;;;;;;;;;;;;14.85;59.19;98061.59;5095831;28;19926;-64
2023/03/14 11:05:10;;;;;;;;;;;;;;;14.71;58.08;98052.72;5095991;28;20006;-64
2023/03/14 11:07:40;;;;;;;;;;;;;;;14.67;58.49;98058.91;5096184;28;19920;-64
2023/03/14 11:10:13;;;;;;;;;;;;;;;14.62;58.21;98053.13;5095708;28;19923;-64
2023/03/14 11:12:48;;;;;;;;;;;;;;;14.66;57.94;98041.00;5094861;28;20431;-64
2023/03/14 11:15:19;;;;;;;;;;;;;;;14.68;57.35;98034.88;5095775;28;20325;-65
2023/03/14 11:17:53;;;;;;;;;;;;;;;14.77;57.23;98049.06;5095459;28;20038;-64
2023/03/14 11:20:33;;;;;;;;;;;;;;;14.82;57.57;98031.72;5095451;28;20340;-64
2023/03/14 11:23:05;;;;;;;;;;;;;;;14.84;57.18;98035.06;5095602;28;19920;-64
2023/03/14 11:25:36;;;;;;;;;;;;;;;14.85;57.48;98035.91;5095707;28;19946;-64
2023/03/14 11:28:10;;;;;;;;;;;;;;;14.76;57.65;98035.38;5094490;28;19920;-65
2023/03/14 11:30:44;;;;;;;;;;;;;;;14.70;57.75;98033.09;5096848;28;20010;-65
2023/03/14 11:33:15;;;;;;;;;;;;;;;14.67;57.57;98028.09;5104166;28;19920;-64
2023/03/14 11:35:48;;;;;;;;;;;;;;;14.66;57.40;98023.03;5095590;28;19920;-64
2023/03/14 11:38:25;;;;;;;;;;;;;;;14.66;57.34;98016.16;5095527;28;20374;-64
2023/03/14 11:40:55;;;;;;;;;;;;;;;14.71;57.26;98010.81;5096145;28;19956;-65
2023/03/14 11:43:29;;;;;;;;;;;;;;;14.75;57.21;98002.94;5114284;28;19924;-64
2023/03/14 11:46:02;;;;;;;;;;;;;;;14.80;57.16;98013.00;5114790;28;19962;-64
2023/03/14 11:48:36;;;;;;;;;;;;;;;14.83;57.58;98015.41;5115436;28;20426;-63
2023/03/14 11:51:08;;;;;;;;;;;;;;;14.78;58.11;98002.75;5113753;28;20014;-65
2023/03/14 11:53:41;;;;;;;;;;;;;;;14.73;57.67;97997.00;5104629;28;19925;-64
2023/03/14 11:56:12;;;;;;;;;;;;;;;14.71;58.02;97996.22;5115286;28;19919;-64
2023/03/14 11:58:46;;;;;;;;;;;;;;;14.70;58.13;97997.16;5115276;28;19920;-64
2023/03/14 12:01:21;;;;;;;;;;;;;;;14.73;57.68;97985.91;5115286;28;20307;-64
2023/03/14 12:03:56;;;;;;;;;;;;;;;14.72;57.43;97984.25;5115462;28;19919;-64
2023/03/14 12:06:27;;;;;;;;;;;;;;;14.73;57.64;97985.91;5115456;28;19919;-64
2023/03/14 12:08:58;;;;;;;;;;;;;;;14.73;57.72;97975.66;5102190;28;20270;-64
2023/03/14 12:11:40;;;;;;;;;;;;;;;14.70;58.11;97971.47;5094856;28;20266;-64
2023/03/14 12:14:20;;;;;;;;;;;;;;;14.67;58.28;97970.75;5094813;28;20002;-65
2023/03/14 12:16:56;;;;;;;;;;;;;;;14.63;58.56;97964.94;5094613;28;19924;-64
2023/03/14 12:19:30;;;;;;;;;;;;;;;14.63;58.14;97959.81;5094949;28;19978;-64
2023/03/14 12:22:02;;;;;;;;;;;;;;;14.61;58.68;97956.47;5094799;28;20002;-64
2023/03/14 12:24:33;;;;;;;;;;;;;;;14.59;59.01;97953.13;5095108;28;19961;-63
2023/03/14 12:27:02;;;;;;;;;;;;;;;14.60;58.84;97941.97;5094527;28;19927;-65
2023/03/14 12:29:30;;;;;;;;;;;;;;;14.62;58.75;97942.72;5094642;28;20336;-64
2023/03/14 12:32:10;;;;;;;;;;;;;;;14.67;58.67;97930.53;5094237;28;19920;-64
2023/03/14 12:34:45;;;;;;;;;;;;;;;14.70;59.38;97943.22;5101719;28;20030;-65
2023/03/14 12:37:18;;;;;;;;;;;;;;;14.71;59.63;97936.34;5114633;28;19920;-65
2023/03/14 12:39:54;;;;;;;;;;;;;;;14.71;59.61;97947.44;5113202;28;19926;-64
2023/03/14 12:42:37;;;;;;;;;;;;;;;14.70;60.15;97935.53;5100955;28;19968;-63
2023/03/14 12:45:23;;;;;;;;;;;;;;;14.67;60.95;97942.53;5102358;28;19924;-63
2023/03/14 12:47:57;;;;;;;;;;;;;;;14.59;61.50;97932.59;5114271;28;19928;-65
2023/03/14 12:50:31;;;;;;;;;;;;;;;14.52;61.97;97931.19;5114429;28;19924;-65
2023/03/14 12:53:21;;;;;;;;;;;;;;;14.45;62.69;97936.66;5114310;28;19926;-65
2023/03/14 12:55:55;;;;;;;;;;;;;;;14.41;63.30;97933.41;5111846;28;20418;-66
2023/03/14 12:58:29;;;;;;;;;;;;;;;14.34;63.21;97942.28;5097435;28;19920;-65
2023/03/14 13:01:01;;;;;;;;;;;;;;;14.29;64.31;97944.19;5098885;28;19981;-65
2023/03/14 13:03:39;;;;;;;;;;;;;;;14.23;64.84;97954.69;5096804;28;20358;-65
2023/03/14 13:06:11;;;;;;;;;;;;;;;14.15;65.22;97956.78;5094213;28;19924;-65
2023/03/14 13:08:41;;;;;;;;;;;;;;;14.08;66.48;97950.25;5094056;28;20014;-65
2023/03/14 13:11:12;;;;;;;;;;;;;;;14.03;67.04;97959.88;5094393;28;19927;-65
2023/03/14 13:13:46;;;;;;;;;;;;;;;13.92;68.35;97967.16;5093722;28;20467;-66